sensor_id;sensor_type;location;lat;lon;timestamp;P1;durP1;ratioP1;P2;durP2;ratioP2
34302;SDS011;20785;50.020;19.916;2022-11-14T00:05:14;32.67;;;14.03;;
34302;SDS011;20785;50.020;19.916;2022-11-14T00:11:34;34.92;;;14.98;;
34302;SDS011;20785;50.020;19.916;2022-11-14T00:17:54;33.95;;;14.83;;
34302;SDS011;20785;50.020;19.916;2022-11-14T00:24:13;35.15;;;14.23;;
34302;SDS011;20785;50.020;19.916;2022-11-14T00:30:33;31.35;;;14.03;;
34302;SDS011;20785;50.020;19.916;2022-11-14T00:36:52;34.35;;;14.53;;
34302;SDS011;20785;50.020;19.916;2022-11-14T00:43:12;35.78;;;13.45;;
34302;SDS011;20785;50.020;19.916;2022-11-14T00:49:32;32.33;;;14.15;;
34302;SDS011;20785;50.020;19.916;2022-11-14T00:55:51;32.90;;;14.43;;
34302;SDS011;20785;50.020;19.916;2022-11-14T01:02:11;31.10;;;13.20;;
34302;SDS011;20785;50.020;19.916;2022-11-14T01:08:31;37.85;;;16.12;;
34302;SDS011;20785;50.020;19.916;2022-11-14T01:14:51;37.33;;;14.00;;
34302;SDS011;20785;50.020;19.916;2022-11-14T01:21:12;37.67;;;14.75;;
34302;SDS011;20785;50.020;19.916;2022-11-14T01:27:32;36.40;;;14.78;;
34302;SDS011;20785;50.020;19.916;2022-11-14T01:33:54;33.65;;;14.03;;
34302;SDS011;20785;50.020;19.916;2022-11-14T01:40:14;33.42;;;13.83;;
34302;SDS011;20785;50.020;19.916;2022-11-14T01:46:35;31.57;;;12.75;;
34302;SDS011;20785;50.020;19.916;2022-11-14T01:52:58;27.45;;;12.05;;
34302;SDS011;20785;50.020;19.916;2022-11-14T01:59:19;29.60;;;12.53;;
34302;SDS011;20785;50.020;19.916;2022-11-14T02:05:41;26.87;;;11.35;;
34302;SDS011;20785;50.020;19.916;2022-11-14T02:12:05;30.17;;;12.85;;
34302;SDS011;20785;50.020;19.916;2022-11-14T02:18:27;24.57;;;11.08;;
34302;SDS011;20785;50.020;19.916;2022-11-14T02:24:47;24.72;;;11.00;;
34302;SDS011;20785;50.020;19.916;2022-11-14T02:31:07;24.43;;;10.72;;
34302;SDS011;20785;50.020;19.916;2022-11-14T02:37:26;29.95;;;11.33;;
34302;SDS011;20785;50.020;19.916;2022-11-14T02:43:46;22.00;;;10.78;;
34302;SDS011;20785;50.020;19.916;2022-11-14T02:50:06;22.02;;;10.28;;
34302;SDS011;20785;50.020;19.916;2022-11-14T02:56:27;24.77;;;10.40;;
34302;SDS011;20785;50.020;19.916;2022-11-14T03:02:46;21.95;;;10.10;;
34302;SDS011;20785;50.020;19.916;2022-11-14T03:09:06;26.40;;;10.88;;
34302;SDS011;20785;50.020;19.916;2022-11-14T03:15:26;18.20;;;8.93;;
34302;SDS011;20785;50.020;19.916;2022-11-14T03:21:45;18.27;;;9.10;;
34302;SDS011;20785;50.020;19.916;2022-11-14T03:28:05;20.68;;;9.63;;
34302;SDS011;20785;50.020;19.916;2022-11-14T03:34:24;20.45;;;9.48;;
34302;SDS011;20785;50.020;19.916;2022-11-14T03:40:44;20.75;;;9.60;;
34302;SDS011;20785;50.020;19.916;2022-11-14T03:47:04;18.15;;;8.78;;
34302;SDS011;20785;50.020;19.916;2022-11-14T03:53:23;18.30;;;9.15;;
34302;SDS011;20785;50.020;19.916;2022-11-14T03:59:43;17.50;;;8.65;;
34302;SDS011;20785;50.020;19.916;2022-11-14T04:06:03;18.98;;;8.63;;
34302;SDS011;20785;50.020;19.916;2022-11-14T04:12:23;14.98;;;7.62;;
34302;SDS011;20785;50.020;19.916;2022-11-14T04:18:43;17.12;;;8.20;;
34302;SDS011;20785;50.020;19.916;2022-11-14T04:25:03;16.05;;;7.60;;
34302;SDS011;20785;50.020;19.916;2022-11-14T04:31:24;16.30;;;8.03;;
34302;SDS011;20785;50.020;19.916;2022-11-14T04:37:44;17.92;;;8.78;;
34302;SDS011;20785;50.020;19.916;2022-11-14T04:44:04;18.42;;;8.70;;
34302;SDS011;20785;50.020;19.916;2022-11-14T04:50:24;17.77;;;9.05;;
34302;SDS011;20785;50.020;19.916;2022-11-14T04:56:44;19.23;;;9.25;;
34302;SDS011;20785;50.020;19.916;2022-11-14T05:03:03;17.42;;;8.98;;
34302;SDS011;20785;50.020;19.916;2022-11-14T05:09:23;21.42;;;10.13;;
34302;SDS011;20785;50.020;19.916;2022-11-14T05:15:42;20.68;;;10.03;;
34302;SDS011;20785;50.020;19.916;2022-11-14T05:22:02;18.67;;;9.75;;
34302;SDS011;20785;50.020;19.916;2022-11-14T05:28:22;19.30;;;10.05;;
34302;SDS011;20785;50.020;19.916;2022-11-14T05:34:43;20.90;;;10.18;;
34302;SDS011;20785;50.020;19.916;2022-11-14T05:41:11;20.60;;;9.60;;
34302;SDS011;20785;50.020;19.916;2022-11-14T05:47:29;18.65;;;9.23;;
34302;SDS011;20785;50.020;19.916;2022-11-14T05:53:49;16.93;;;9.18;;
34302;SDS011;20785;50.020;19.916;2022-11-14T06:00:09;16.77;;;8.45;;
34302;SDS011;20785;50.020;19.916;2022-11-14T06:06:30;14.65;;;8.08;;
34302;SDS011;20785;50.020;19.916;2022-11-14T06:12:50;14.93;;;7.97;;
34302;SDS011;20785;50.020;19.916;2022-11-14T06:19:09;15.25;;;8.50;;
34302;SDS011;20785;50.020;19.916;2022-11-14T06:25:29;17.10;;;8.53;;
34302;SDS011;20785;50.020;19.916;2022-11-14T06:31:49;18.02;;;8.58;;
34302;SDS011;20785;50.020;19.916;2022-11-14T06:38:09;15.72;;;8.68;;
34302;SDS011;20785;50.020;19.916;2022-11-14T06:44:31;17.60;;;9.20;;
34302;SDS011;20785;50.020;19.916;2022-11-14T06:50:53;17.42;;;8.50;;
34302;SDS011;20785;50.020;19.916;2022-11-14T06:57:17;18.42;;;9.73;;
34302;SDS011;20785;50.020;19.916;2022-11-14T07:03:36;17.37;;;9.23;;
34302;SDS011;20785;50.020;19.916;2022-11-14T07:09:57;14.87;;;8.13;;
34302;SDS011;20785;50.020;19.916;2022-11-14T07:16:18;15.75;;;8.45;;
34302;SDS011;20785;50.020;19.916;2022-11-14T07:22:46;14.03;;;8.03;;
34302;SDS011;20785;50.020;19.916;2022-11-14T07:29:06;16.57;;;9.03;;
34302;SDS011;20785;50.020;19.916;2022-11-14T07:35:29;16.87;;;8.70;;
34302;SDS011;20785;50.020;19.916;2022-11-14T07:41:49;18.20;;;9.53;;
34302;SDS011;20785;50.020;19.916;2022-11-14T07:48:09;20.57;;;9.60;;
34302;SDS011;20785;50.020;19.916;2022-11-14T07:54:29;17.57;;;9.58;;
34302;SDS011;20785;50.020;19.916;2022-11-14T08:00:49;17.15;;;9.20;;
34302;SDS011;20785;50.020;19.916;2022-11-14T08:07:09;18.00;;;9.45;;
34302;SDS011;20785;50.020;19.916;2022-11-14T08:13:29;18.27;;;9.55;;
34302;SDS011;20785;50.020;19.916;2022-11-14T08:19:49;16.73;;;8.95;;
34302;SDS011;20785;50.020;19.916;2022-11-14T08:26:10;19.75;;;10.13;;
34302;SDS011;20785;50.020;19.916;2022-11-14T08:32:29;20.23;;;9.65;;
34302;SDS011;20785;50.020;19.916;2022-11-14T08:38:50;17.42;;;9.03;;
34302;SDS011;20785;50.020;19.916;2022-11-14T08:45:10;18.23;;;10.13;;
34302;SDS011;20785;50.020;19.916;2022-11-14T08:51:33;19.65;;;9.65;;
34302;SDS011;20785;50.020;19.916;2022-11-14T08:57:53;18.02;;;9.53;;
34302;SDS011;20785;50.020;19.916;2022-11-14T09:04:12;17.17;;;9.95;;
34302;SDS011;20785;50.020;19.916;2022-11-14T09:10:33;21.20;;;10.55;;
34302;SDS011;20785;50.020;19.916;2022-11-14T09:16:53;19.07;;;10.60;;
34302;SDS011;20785;50.020;19.916;2022-11-14T09:23:13;16.05;;;8.98;;
34302;SDS011;20785;50.020;19.916;2022-11-14T09:29:33;15.65;;;8.60;;
34302;SDS011;20785;50.020;19.916;2022-11-14T09:35:56;15.45;;;9.35;;
34302;SDS011;20785;50.020;19.916;2022-11-14T09:49:29;17.45;;;10.25;;
34302;SDS011;20785;50.020;19.916;2022-11-14T09:56:04;20.08;;;11.40;;
34302;SDS011;20785;50.020;19.916;2022-11-14T10:02:44;18.80;;;10.43;;
34302;SDS011;20785;50.020;19.916;2022-11-14T10:36:15;19.23;;;10.72;;
34302;SDS011;20785;50.020;19.916;2022-11-14T10:42:44;20.68;;;11.40;;
34302;SDS011;20785;50.020;19.916;2022-11-14T10:49:12;21.82;;;12.63;;
34302;SDS011;20785;50.020;19.916;2022-11-14T10:55:45;22.07;;;12.10;;
34302;SDS011;20785;50.020;19.916;2022-11-14T11:02:14;20.20;;;11.25;;
34302;SDS011;20785;50.020;19.916;2022-11-14T11:08:44;23.38;;;11.88;;
34302;SDS011;20785;50.020;19.916;2022-11-14T11:15:27;23.02;;;12.25;;
34302;SDS011;20785;50.020;19.916;2022-11-14T11:21:50;24.25;;;12.65;;
34302;SDS011;20785;50.020;19.916;2022-11-14T11:28:15;22.25;;;11.93;;
34302;SDS011;20785;50.020;19.916;2022-11-14T11:34:40;23.83;;;12.55;;
34302;SDS011;20785;50.020;19.916;2022-11-14T11:41:16;22.50;;;12.40;;
34302;SDS011;20785;50.020;19.916;2022-11-14T11:54:23;22.80;;;12.78;;
34302;SDS011;20785;50.020;19.916;2022-11-14T12:00:49;23.52;;;12.53;;
34302;SDS011;20785;50.020;19.916;2022-11-14T12:07:16;24.10;;;13.13;;
34302;SDS011;20785;50.020;19.916;2022-11-14T12:27:49;19.15;;;11.93;;
34302;SDS011;20785;50.020;19.916;2022-11-14T12:34:23;23.85;;;13.48;;
34302;SDS011;20785;50.020;19.916;2022-11-14T12:40:54;19.25;;;11.68;;
34302;SDS011;20785;50.020;19.916;2022-11-14T12:47:26;20.35;;;11.88;;
34302;SDS011;20785;50.020;19.916;2022-11-14T12:53:45;22.00;;;12.98;;
34302;SDS011;20785;50.020;19.916;2022-11-14T13:00:06;24.90;;;13.18;;
34302;SDS011;20785;50.020;19.916;2022-11-14T13:06:38;25.72;;;15.28;;
34302;SDS011;20785;50.020;19.916;2022-11-14T13:13:06;23.05;;;12.88;;
34302;SDS011;20785;50.020;19.916;2022-11-14T13:19:46;23.92;;;12.75;;
34302;SDS011;20785;50.020;19.916;2022-11-14T13:32:51;25.72;;;14.15;;
34302;SDS011;20785;50.020;19.916;2022-11-14T13:52:44;28.00;;;15.68;;
34302;SDS011;20785;50.020;19.916;2022-11-14T14:06:02;24.80;;;14.75;;
34302;SDS011;20785;50.020;19.916;2022-11-14T14:12:49;27.27;;;15.23;;
34302;SDS011;20785;50.020;19.916;2022-11-14T14:33:16;25.12;;;13.83;;
34302;SDS011;20785;50.020;19.916;2022-11-14T14:39:40;25.52;;;14.18;;
34302;SDS011;20785;50.020;19.916;2022-11-14T14:46:25;29.87;;;15.90;;
34302;SDS011;20785;50.020;19.916;2022-11-14T14:53:02;30.48;;;15.85;;
34302;SDS011;20785;50.020;19.916;2022-11-14T14:59:21;27.27;;;14.38;;
34302;SDS011;20785;50.020;19.916;2022-11-14T15:05:42;30.68;;;15.88;;
34302;SDS011;20785;50.020;19.916;2022-11-14T15:12:02;29.10;;;15.58;;
34302;SDS011;20785;50.020;19.916;2022-11-14T15:18:28;29.92;;;15.45;;
34302;SDS011;20785;50.020;19.916;2022-11-14T15:25:05;31.80;;;16.53;;
34302;SDS011;20785;50.020;19.916;2022-11-14T15:31:36;33.83;;;17.23;;
34302;SDS011;20785;50.020;19.916;2022-11-14T15:38:00;33.60;;;17.37;;
34302;SDS011;20785;50.020;19.916;2022-11-14T15:44:33;34.80;;;18.02;;
34302;SDS011;20785;50.020;19.916;2022-11-14T15:50:54;32.90;;;17.07;;
34302;SDS011;20785;50.020;19.916;2022-11-14T15:57:15;36.42;;;18.62;;
34302;SDS011;20785;50.020;19.916;2022-11-14T16:03:37;37.60;;;19.45;;
34302;SDS011;20785;50.020;19.916;2022-11-14T16:09:57;31.57;;;17.90;;
34302;SDS011;20785;50.020;19.916;2022-11-14T16:16:19;34.90;;;18.75;;
34302;SDS011;20785;50.020;19.916;2022-11-14T16:22:40;38.48;;;19.27;;
34302;SDS011;20785;50.020;19.916;2022-11-14T16:29:01;36.30;;;18.40;;
34302;SDS011;20785;50.020;19.916;2022-11-14T16:35:21;30.52;;;16.27;;
34302;SDS011;20785;50.020;19.916;2022-11-14T16:41:44;37.53;;;19.70;;
34302;SDS011;20785;50.020;19.916;2022-11-14T16:48:04;35.80;;;18.12;;
34302;SDS011;20785;50.020;19.916;2022-11-14T16:54:24;37.93;;;19.70;;
34302;SDS011;20785;50.020;19.916;2022-11-14T17:00:44;32.35;;;17.30;;
34302;SDS011;20785;50.020;19.916;2022-11-14T17:07:04;39.95;;;21.37;;
34302;SDS011;20785;50.020;19.916;2022-11-14T17:13:27;35.73;;;18.98;;
34302;SDS011;20785;50.020;19.916;2022-11-14T17:19:48;43.30;;;19.87;;
34302;SDS011;20785;50.020;19.916;2022-11-14T17:26:09;39.05;;;19.15;;
34302;SDS011;20785;50.020;19.916;2022-11-14T17:32:36;42.08;;;21.17;;
34302;SDS011;20785;50.020;19.916;2022-11-14T17:38:57;41.85;;;20.57;;
34302;SDS011;20785;50.020;19.916;2022-11-14T17:45:17;41.28;;;20.77;;
34302;SDS011;20785;50.020;19.916;2022-11-14T17:51:51;43.65;;;22.20;;
34302;SDS011;20785;50.020;19.916;2022-11-14T17:58:30;42.48;;;20.72;;
34302;SDS011;20785;50.020;19.916;2022-11-14T18:26:27;45.65;;;22.45;;
34302;SDS011;20785;50.020;19.916;2022-11-14T18:32:51;43.85;;;22.13;;
34302;SDS011;20785;50.020;19.916;2022-11-14T18:46:32;45.67;;;21.77;;
34302;SDS011;20785;50.020;19.916;2022-11-14T19:00:50;53.08;;;24.55;;
34302;SDS011;20785;50.020;19.916;2022-11-14T19:07:37;49.60;;;22.32;;
34302;SDS011;20785;50.020;19.916;2022-11-14T19:14:23;50.83;;;23.60;;
34302;SDS011;20785;50.020;19.916;2022-11-14T19:20:43;56.42;;;24.67;;
34302;SDS011;20785;50.020;19.916;2022-11-14T19:27:25;54.80;;;25.10;;
34302;SDS011;20785;50.020;19.916;2022-11-14T19:33:56;53.60;;;24.40;;
34302;SDS011;20785;50.020;19.916;2022-11-14T19:40:20;45.88;;;20.45;;
34302;SDS011;20785;50.020;19.916;2022-11-14T19:47:41;50.92;;;22.55;;
34302;SDS011;20785;50.020;19.916;2022-11-14T19:54:12;49.23;;;21.27;;
34302;SDS011;20785;50.020;19.916;2022-11-14T20:01:38;45.85;;;19.32;;
34302;SDS011;20785;50.020;19.916;2022-11-14T20:07:34;48.52;;;20.00;;
34302;SDS011;20785;50.020;19.916;2022-11-14T20:14:02;47.35;;;19.55;;
34302;SDS011;20785;50.020;19.916;2022-11-14T20:20:25;49.03;;;19.82;;
34302;SDS011;20785;50.020;19.916;2022-11-14T20:34:25;46.18;;;19.20;;
34302;SDS011;20785;50.020;19.916;2022-11-14T20:41:15;42.75;;;18.98;;
34302;SDS011;20785;50.020;19.916;2022-11-14T20:47:43;43.28;;;18.23;;
34302;SDS011;20785;50.020;19.916;2022-11-14T20:54:10;38.20;;;17.82;;
34302;SDS011;20785;50.020;19.916;2022-11-14T21:15:19;40.25;;;17.30;;
34302;SDS011;20785;50.020;19.916;2022-11-14T21:21:15;36.83;;;17.52;;
34302;SDS011;20785;50.020;19.916;2022-11-14T21:27:52;39.67;;;17.70;;
34302;SDS011;20785;50.020;19.916;2022-11-14T21:34:28;35.95;;;16.12;;
34302;SDS011;20785;50.020;19.916;2022-11-14T21:47:39;31.73;;;14.73;;
34302;SDS011;20785;50.020;19.916;2022-11-14T22:01:02;33.78;;;14.18;;
34302;SDS011;20785;50.020;19.916;2022-11-14T22:07:30;32.10;;;14.33;;
34302;SDS011;20785;50.020;19.916;2022-11-14T22:14:01;32.55;;;15.15;;
34302;SDS011;20785;50.020;19.916;2022-11-14T22:21:35;32.42;;;14.98;;
34302;SDS011;20785;50.020;19.916;2022-11-14T22:27:19;31.27;;;14.38;;
34302;SDS011;20785;50.020;19.916;2022-11-14T22:33:45;31.27;;;13.13;;
34302;SDS011;20785;50.020;19.916;2022-11-14T22:40:10;37.57;;;14.70;;
34302;SDS011;20785;50.020;19.916;2022-11-14T22:46:35;30.72;;;13.65;;
34302;SDS011;20785;50.020;19.916;2022-11-14T22:53:02;33.00;;;13.55;;
34302;SDS011;20785;50.020;19.916;2022-11-14T22:59:32;32.03;;;13.85;;
34302;SDS011;20785;50.020;19.916;2022-11-14T23:05:53;32.98;;;14.05;;
34302;SDS011;20785;50.020;19.916;2022-11-14T23:12:18;34.15;;;15.25;;
34302;SDS011;20785;50.020;19.916;2022-11-14T23:18:47;32.90;;;14.05;;
34302;SDS011;20785;50.020;19.916;2022-11-14T23:25:22;31.97;;;13.55;;
34302;SDS011;20785;50.020;19.916;2022-11-14T23:31:48;31.55;;;13.88;;
34302;SDS011;20785;50.020;19.916;2022-11-14T23:38:10;30.60;;;12.28;;
